createdAt,value
2019-03-24T00:01:41.365Z,2.71
2019-03-24T00:04:09.381Z,2.68
2019-03-24T00:06:39.085Z,2.80
2019-03-24T00:09:09.062Z,2.84
2019-03-24T00:11:38.787Z,2.78
2019-03-24T00:14:08.481Z,2.80
2019-03-24T00:16:38.159Z,2.76
2019-03-24T00:19:08.338Z,2.59
2019-03-24T00:21:38.622Z,2.56
2019-03-24T00:24:08.424Z,2.67
2019-03-24T00:26:38.145Z,2.71
2019-03-24T00:29:07.885Z,2.74
2019-03-24T00:31:37.595Z,2.69
2019-03-24T00:34:07.814Z,2.66
2019-03-24T00:36:37.829Z,2.60
2019-03-24T00:39:08.087Z,2.71
2019-03-24T00:41:37.839Z,2.69
2019-03-24T00:44:07.655Z,2.61
2019-03-24T00:46:37.379Z,2.60
2019-03-24T00:49:07.111Z,2.56
2019-03-24T00:51:36.829Z,2.68
2019-03-24T00:54:06.625Z,2.65
2019-03-24T00:56:36.382Z,2.59
2019-03-24T00:59:06.083Z,2.62
2019-03-24T01:01:36.342Z,2.70
2019-03-24T01:04:06.890Z,2.65
2019-03-24T01:06:36.630Z,2.59
2019-03-24T01:09:08.408Z,2.71
2019-03-24T01:11:38.184Z,2.68
2019-03-24T01:14:07.863Z,2.65
2019-03-24T01:16:37.580Z,2.63
2019-03-24T01:19:07.255Z,2.57
2019-03-24T01:21:37.258Z,2.37
2019-03-24T01:24:06.932Z,2.26
2019-03-24T01:26:36.645Z,2.38
2019-03-24T01:29:06.332Z,2.55
2019-03-24T01:31:36.073Z,2.26
2019-03-24T01:36:31.785Z,2.25
2019-03-24T01:39:02.204Z,2.08
2019-03-24T01:41:31.881Z,2.06
2019-03-24T01:44:02.236Z,2.06
2019-03-24T01:46:31.992Z,1.85
2019-03-24T01:49:01.731Z,1.90
2019-03-24T01:51:31.459Z,1.67
2019-03-24T01:54:01.126Z,1.61
2019-03-24T01:56:30.886Z,1.48
2019-03-24T01:59:00.574Z,1.44
2019-03-24T02:01:30.440Z,1.54
2019-03-24T02:04:00.422Z,1.47
2019-03-24T02:06:30.104Z,1.36
2019-03-24T02:08:59.779Z,1.32
2019-03-24T02:11:29.513Z,1.24
2019-03-24T02:13:59.197Z,1.27
2019-03-24T02:16:28.977Z,1.24
2019-03-24T02:18:58.648Z,1.36
2019-03-24T02:21:28.588Z,1.30
2019-03-24T02:23:58.319Z,1.14
2019-03-24T02:26:28.015Z,1.09
2019-03-24T02:28:58.030Z,1.11
2019-03-24T02:31:27.707Z,1.19
2019-03-24T02:33:57.413Z,0.97
2019-03-24T02:36:27.211Z,0.85
2019-03-24T02:38:56.890Z,1.01
2019-03-24T02:41:26.625Z,0.87
2019-03-24T02:43:56.333Z,0.71
2019-03-24T02:46:26.021Z,0.61
2019-03-24T02:48:55.725Z,0.60
2019-03-24T02:51:25.408Z,0.60
2019-03-24T02:53:55.089Z,0.71
2019-03-24T02:56:24.807Z,0.70
2019-03-24T02:58:55.797Z,0.55
2019-03-24T03:01:25.538Z,0.61
2019-03-24T03:03:55.218Z,0.46
2019-03-24T03:06:24.914Z,0.47
2019-03-24T03:08:54.619Z,0.61
2019-03-24T03:11:24.622Z,0.60
2019-03-24T03:13:54.394Z,0.45
2019-03-24T03:16:37.615Z,0.43
2019-03-24T03:18:55.542Z,0.45
2019-03-24T03:21:25.362Z,0.47
2019-03-24T03:23:55.180Z,0.52
2019-03-24T03:26:24.884Z,0.56
2019-03-24T03:28:54.675Z,0.77
2019-03-24T03:31:27.767Z,0.67
2019-03-24T03:33:57.464Z,0.61
2019-03-24T03:36:28.415Z,0.47
2019-03-24T03:38:58.099Z,0.47
2019-03-24T03:41:27.854Z,0.44
2019-03-24T03:43:57.901Z,0.57
2019-03-24T03:46:27.674Z,0.57
2019-03-24T03:48:57.369Z,0.51
2019-03-24T03:51:27.094Z,0.60
2019-03-24T03:53:59.108Z,0.48
2019-03-24T03:56:28.426Z,0.31
2019-03-24T03:58:58.185Z,0.43
2019-03-24T04:01:27.876Z,0.54
2019-03-24T04:03:57.583Z,0.42
2019-03-24T04:06:27.266Z,0.44
2019-03-24T04:08:56.993Z,0.40
2019-03-24T04:11:26.743Z,0.56
2019-03-24T04:13:56.421Z,0.68
2019-03-24T04:16:26.080Z,0.54
2019-03-24T04:18:55.821Z,0.45
2019-03-24T04:21:26.225Z,0.28
2019-03-24T04:23:55.939Z,0.51
2019-03-24T04:26:25.713Z,0.61
2019-03-24T04:28:55.452Z,0.24
2019-03-24T04:31:25.135Z,0.31
2019-03-24T04:33:55.142Z,0.16
2019-03-24T04:36:24.912Z,0.12
2019-03-24T04:38:54.587Z,0.17
2019-03-24T04:41:24.347Z,0.15
2019-03-24T04:43:54.035Z,0.19
2019-03-24T04:46:23.713Z,0.32
2019-03-24T04:48:53.455Z,0.16
2019-03-24T04:51:23.161Z,0.38
2019-03-24T04:53:52.883Z,0.31
2019-03-24T04:56:22.610Z,0.34
2019-03-24T04:58:52.258Z,0.36
2019-03-24T05:01:21.997Z,0.41
2019-03-24T05:03:51.807Z,0.36
2019-03-24T05:06:21.505Z,0.23
2019-03-24T05:08:51.325Z,0.50
2019-03-24T05:11:21.010Z,0.47
2019-03-24T05:13:50.744Z,0.47
2019-03-24T05:16:20.423Z,0.48
2019-03-24T05:18:50.184Z,0.60
2019-03-24T05:21:19.873Z,0.65
2019-03-24T05:23:49.548Z,0.83
2019-03-24T05:26:19.252Z,0.74
2019-03-24T05:28:48.978Z,0.93
2019-03-24T05:31:18.700Z,0.91
2019-03-24T05:33:48.404Z,0.84
2019-03-24T05:36:18.110Z,0.85
2019-03-24T05:38:47.807Z,0.84
2019-03-24T05:41:17.515Z,0.93
2019-03-24T05:43:47.233Z,0.94
2019-03-24T05:46:16.912Z,0.94
2019-03-24T05:48:46.639Z,1.09
2019-03-24T05:51:16.310Z,1.18
2019-03-24T05:53:46.057Z,1.05
2019-03-24T05:56:15.785Z,1.00
2019-03-24T05:58:45.452Z,1.08
2019-03-24T06:01:15.687Z,1.16
2019-03-24T06:03:45.418Z,1.19
2019-03-24T06:06:15.285Z,1.25
2019-03-24T06:08:45.003Z,1.30
2019-03-24T06:11:14.823Z,1.32
2019-03-24T06:13:44.692Z,1.38
2019-03-24T06:16:14.556Z,1.36
2019-03-24T06:18:44.273Z,1.33
2019-03-24T06:21:13.958Z,1.41
2019-03-24T06:23:43.690Z,1.43
2019-03-24T06:26:13.416Z,1.43
2019-03-24T06:28:43.120Z,1.48
2019-03-24T06:31:13.061Z,1.49
2019-03-24T06:33:42.811Z,1.59
2019-03-24T06:36:12.643Z,1.74
2019-03-24T06:38:42.342Z,1.90
2019-03-24T06:41:12.081Z,1.99
2019-03-24T06:43:44.026Z,2.05
2019-03-24T06:46:15.056Z,2.08
2019-03-24T06:48:45.185Z,1.98
2019-03-24T06:51:14.878Z,2.02
2019-03-24T06:53:44.597Z,2.14
2019-03-24T06:56:14.315Z,2.23
2019-03-24T06:58:44.038Z,2.28
2019-03-24T07:01:13.736Z,2.36
2019-03-24T07:03:43.500Z,2.33
2019-03-24T07:06:13.175Z,2.24
2019-03-24T07:08:42.906Z,2.16
2019-03-24T07:11:13.868Z,1.95
2019-03-24T07:13:43.648Z,2.01
2019-03-24T07:16:13.383Z,2.20
2019-03-24T07:18:43.246Z,2.20
2019-03-24T07:21:12.971Z,2.26
2019-03-24T07:23:42.664Z,2.18
2019-03-24T07:26:12.395Z,2.19
2019-03-24T07:28:42.139Z,2.17
2019-03-24T07:31:11.934Z,2.29
2019-03-24T07:33:41.672Z,2.55
2019-03-24T07:36:11.372Z,2.74
2019-03-24T07:38:41.138Z,2.85
2019-03-24T07:41:10.927Z,3.04
2019-03-24T07:43:40.644Z,3.28
2019-03-24T07:46:10.406Z,3.38
2019-03-24T07:51:11.294Z,4.00
2019-03-24T07:53:41.082Z,4.12
2019-03-24T07:56:10.886Z,4.48
2019-03-24T07:58:40.609Z,4.60
2019-03-24T08:01:10.302Z,5.00
2019-03-24T08:03:40.037Z,5.08
2019-03-24T08:06:09.770Z,5.50
2019-03-24T08:08:44.218Z,6.00
2019-03-24T08:11:10.994Z,5.71
2019-03-24T08:13:40.762Z,5.95
2019-03-24T08:16:10.615Z,5.48
2019-03-24T08:18:40.414Z,5.47
2019-03-24T08:21:10.246Z,5.59
2019-03-24T08:23:39.979Z,5.91
2019-03-24T08:26:09.692Z,5.69
2019-03-24T08:28:39.638Z,5.48
2019-03-24T08:31:09.382Z,5.77
2019-03-24T08:33:39.081Z,6.31
2019-03-24T08:36:08.909Z,6.76
2019-03-24T08:38:38.694Z,6.97
2019-03-24T08:41:09.503Z,7.27
2019-03-24T08:43:39.252Z,7.41
2019-03-24T08:46:09.190Z,7.66
2019-03-24T08:48:41.152Z,7.43
2019-03-24T08:51:10.424Z,7.38
2019-03-24T08:53:40.235Z,7.57
2019-03-24T08:56:09.958Z,7.68
2019-03-24T08:58:39.691Z,7.65
2019-03-24T09:01:09.508Z,7.24
2019-03-24T09:03:39.229Z,7.67
2019-03-24T09:06:08.959Z,8.33
2019-03-24T09:08:39.952Z,8.20
2019-03-24T09:11:09.772Z,8.82
2019-03-24T09:13:39.458Z,9.39
2019-03-24T09:16:09.198Z,9.70
2019-03-24T09:18:38.886Z,9.64
2019-03-24T09:21:08.602Z,10.01
2019-03-24T09:23:38.530Z,9.66
2019-03-24T09:26:08.241Z,8.48
2019-03-24T09:28:37.971Z,8.74
2019-03-24T09:31:07.711Z,9.91
2019-03-24T09:33:37.462Z,9.49
2019-03-24T09:36:07.199Z,10.11
2019-03-24T09:38:36.904Z,10.20
2019-03-24T09:41:06.628Z,10.09
2019-03-24T09:43:36.367Z,10.35
2019-03-24T09:46:06.155Z,9.65
2019-03-24T09:48:36.743Z,9.88
2019-03-24T09:51:06.464Z,9.18
2019-03-24T09:53:36.448Z,8.84
2019-03-24T09:56:06.334Z,8.43
2019-03-24T09:58:36.153Z,9.49
2019-03-24T10:01:05.884Z,9.83
2019-03-24T10:03:35.650Z,9.80
2019-03-24T10:06:05.361Z,10.12
2019-03-24T10:08:35.402Z,9.05
2019-03-24T10:11:05.386Z,8.40
2019-03-24T10:13:35.073Z,9.56
2019-03-24T10:16:04.801Z,9.08
2019-03-24T10:18:34.523Z,9.63
2019-03-24T10:21:04.340Z,9.50
2019-03-24T10:23:34.081Z,9.80
2019-03-24T10:26:03.810Z,8.78
2019-03-24T10:28:33.511Z,9.16
2019-03-24T10:31:03.633Z,8.53
2019-03-24T10:33:33.318Z,8.94
2019-03-24T10:36:03.054Z,9.54
2019-03-24T10:38:32.936Z,9.23
2019-03-24T10:41:02.780Z,8.31
2019-03-24T10:43:32.503Z,8.90
2019-03-24T10:46:02.219Z,9.22
2019-03-24T10:48:33.877Z,8.77
2019-03-24T10:51:03.464Z,8.37
2019-03-24T10:53:33.301Z,8.55
2019-03-24T10:56:02.981Z,8.22
2019-03-24T10:58:32.849Z,8.83
2019-03-24T11:01:02.550Z,8.88
2019-03-24T11:03:32.355Z,8.41
2019-03-24T11:06:02.224Z,8.32
2019-03-24T11:08:31.946Z,8.43
2019-03-24T11:11:01.750Z,8.68
2019-03-24T11:13:31.481Z,8.68
2019-03-24T11:16:01.182Z,9.15
2019-03-24T11:18:30.857Z,9.38
2019-03-24T11:21:00.636Z,9.87
2019-03-24T11:23:30.322Z,9.73
2019-03-24T11:26:00.119Z,9.92
2019-03-24T11:28:29.830Z,9.79
2019-03-24T11:30:59.562Z,9.89
2019-03-24T11:33:29.715Z,9.45
2019-03-24T11:35:59.574Z,9.94
2019-03-24T11:38:29.296Z,9.97
2019-03-24T11:40:59.066Z,9.65
2019-03-24T11:43:28.800Z,10.22
2019-03-24T11:45:58.494Z,10.10
2019-03-24T11:48:28.255Z,8.75
2019-03-24T11:50:58.000Z,9.24
2019-03-24T11:53:27.790Z,9.52
2019-03-24T11:55:57.645Z,9.77
2019-03-24T11:58:27.484Z,9.18
2019-03-24T12:00:57.314Z,9.58
2019-03-24T12:03:27.259Z,9.54
2019-03-24T12:05:59.481Z,10.41
2019-03-24T12:08:29.347Z,10.08
2019-03-24T12:10:59.066Z,10.28
2019-03-24T12:13:28.803Z,10.97
2019-03-24T12:15:58.508Z,11.88
2019-03-24T12:18:28.231Z,11.61
2019-03-24T12:20:58.113Z,10.71
2019-03-24T12:23:27.863Z,11.05
2019-03-24T12:25:57.707Z,10.00
2019-03-24T12:28:27.457Z,10.36
2019-03-24T12:30:58.364Z,9.73
2019-03-24T12:33:28.277Z,10.42
2019-03-24T12:35:58.096Z,10.72
2019-03-24T12:38:27.828Z,10.85
2019-03-24T12:40:57.568Z,10.77
2019-03-24T12:43:27.419Z,11.25
2019-03-24T12:45:58.353Z,11.06
2019-03-24T12:48:28.257Z,9.88
2019-03-24T12:50:58.015Z,10.49
2019-03-24T12:53:27.796Z,10.82
2019-03-24T12:55:57.496Z,12.26
2019-03-24T12:58:27.307Z,12.84
2019-03-24T13:00:57.240Z,12.71
2019-03-24T13:03:26.959Z,12.30
2019-03-24T13:05:56.726Z,12.69
2019-03-24T13:08:26.515Z,13.76
2019-03-24T13:10:56.598Z,11.76
2019-03-24T13:13:26.337Z,12.28
2019-03-24T13:15:57.601Z,13.01
2019-03-24T13:18:27.419Z,10.64
2019-03-24T13:20:57.219Z,11.33
2019-03-24T13:23:26.919Z,10.76
2019-03-24T13:25:56.776Z,11.59
2019-03-24T13:28:26.462Z,11.58
2019-03-24T13:30:56.289Z,11.33
2019-03-24T13:33:26.055Z,10.22
2019-03-24T13:36:12.824Z,11.55
2019-03-24T13:38:42.538Z,11.91
2019-03-24T13:41:12.280Z,11.28
2019-03-24T13:43:41.978Z,12.01
2019-03-24T13:46:11.802Z,12.49
2019-03-24T13:48:41.636Z,11.40
2019-03-24T13:51:11.533Z,12.84
2019-03-24T13:53:41.470Z,13.40
2019-03-24T13:56:11.782Z,12.14
2019-03-24T13:58:41.598Z,13.13
2019-03-24T14:01:11.489Z,12.40
2019-03-24T14:03:41.239Z,13.13
2019-03-24T14:06:11.005Z,14.22
2019-03-24T14:08:40.801Z,12.14
2019-03-24T14:11:10.524Z,12.48
2019-03-24T14:13:40.278Z,13.43
2019-03-24T14:16:10.032Z,14.35
2019-03-24T14:18:39.901Z,15.01
2019-03-24T14:21:09.655Z,15.26
2019-03-24T14:23:39.449Z,15.47
2019-03-24T14:26:09.166Z,12.98
2019-03-24T14:28:38.914Z,14.09
2019-03-24T14:31:08.666Z,15.13
2019-03-24T14:33:38.380Z,14.78
2019-03-24T14:36:08.120Z,12.12
2019-03-24T14:38:37.854Z,13.56
2019-03-24T14:41:07.873Z,13.79
2019-03-24T14:43:37.705Z,13.56
2019-03-24T14:46:07.494Z,13.52
2019-03-24T14:48:37.219Z,14.26
2019-03-24T14:51:07.028Z,13.19
2019-03-24T14:53:36.757Z,13.66
2019-03-24T14:56:06.532Z,14.53
2019-03-24T14:58:36.374Z,13.48
2019-03-24T15:01:06.424Z,12.29
2019-03-24T15:03:36.180Z,14.05
2019-03-24T15:06:06.177Z,14.01
2019-03-24T15:08:35.926Z,14.86
2019-03-24T15:11:05.781Z,13.90
2019-03-24T15:13:35.481Z,13.41
2019-03-24T15:16:05.436Z,11.34
2019-03-24T15:18:35.271Z,11.71
2019-03-24T15:21:06.084Z,11.51
2019-03-24T15:23:35.971Z,13.34
2019-03-24T15:26:05.734Z,12.11
2019-03-24T15:28:35.980Z,11.87
2019-03-24T15:31:05.718Z,13.69
2019-03-24T15:33:35.454Z,15.08
2019-03-24T15:36:06.262Z,14.38
2019-03-24T15:38:35.999Z,14.75
2019-03-24T15:41:06.839Z,14.60
2019-03-24T15:43:36.583Z,13.62
2019-03-24T15:46:06.340Z,13.78
2019-03-24T15:48:36.035Z,13.56
2019-03-24T15:51:16.098Z,13.88
2019-03-24T15:53:37.333Z,13.17
2019-03-24T15:56:07.103Z,12.44
2019-03-24T15:58:36.994Z,11.55
2019-03-24T16:01:06.758Z,11.32
2019-03-24T16:03:38.495Z,11.48
2019-03-24T16:06:08.209Z,11.06
2019-03-24T16:08:38.098Z,11.24
2019-03-24T16:11:07.988Z,11.93
2019-03-24T16:13:37.692Z,12.32
2019-03-24T16:16:07.451Z,12.50
2019-03-24T16:18:37.138Z,12.07
2019-03-24T16:21:06.886Z,12.62
2019-03-24T16:23:36.938Z,12.67
2019-03-24T16:26:06.640Z,12.41
2019-03-24T16:28:36.879Z,12.45
2019-03-24T16:31:06.630Z,12.98
2019-03-24T16:33:36.382Z,12.94
2019-03-24T16:36:06.107Z,11.87
2019-03-24T16:38:35.911Z,10.77
2019-03-24T16:41:05.725Z,10.41
2019-03-24T16:43:35.562Z,10.61
2019-03-24T16:46:05.554Z,11.16
2019-03-24T16:48:37.090Z,11.02
2019-03-24T16:51:06.829Z,10.93
2019-03-24T16:53:36.579Z,11.12
2019-03-24T16:56:06.527Z,11.93
2019-03-24T16:58:36.339Z,11.78
2019-03-24T17:01:06.371Z,11.63
2019-03-24T17:03:36.114Z,11.43
2019-03-24T17:06:05.866Z,10.87
2019-03-24T17:08:35.726Z,10.38
2019-03-24T17:11:05.503Z,9.92
2019-03-24T17:13:35.290Z,10.00
2019-03-24T17:16:05.277Z,9.46
2019-03-24T17:18:35.018Z,9.45
2019-03-24T17:21:04.789Z,9.40
2019-03-24T17:23:34.598Z,9.36
2019-03-24T17:26:04.325Z,9.05
2019-03-24T17:28:34.112Z,9.02
2019-03-24T17:31:04.059Z,8.81
2019-03-24T17:33:33.808Z,8.75
2019-03-24T17:36:03.612Z,8.63
2019-03-24T17:38:33.852Z,8.48
2019-03-24T17:41:03.615Z,8.41
2019-03-24T17:43:35.174Z,8.27
2019-03-24T17:46:05.020Z,8.28
2019-03-24T17:48:34.965Z,8.17
2019-03-24T17:51:04.722Z,8.09
2019-03-24T17:53:34.884Z,7.90
2019-03-24T17:56:06.176Z,7.90
2019-03-24T17:58:36.259Z,7.83
2019-03-24T18:01:06.173Z,7.69
2019-03-24T18:03:36.084Z,7.62
2019-03-24T18:06:05.936Z,7.59
2019-03-24T18:08:35.721Z,7.47
2019-03-24T18:11:06.239Z,7.47
2019-03-24T18:13:36.074Z,7.33
2019-03-24T18:16:05.907Z,7.35
2019-03-24T18:18:35.703Z,7.13
2019-03-24T18:21:05.422Z,7.17
2019-03-24T18:23:35.324Z,7.07
2019-03-24T18:26:05.113Z,6.99
2019-03-24T18:28:34.848Z,6.97
2019-03-24T18:31:05.170Z,6.90
2019-03-24T18:33:35.115Z,6.81
2019-03-24T18:36:05.821Z,6.77
2019-03-24T18:38:35.670Z,6.77
2019-03-24T18:41:05.893Z,6.76
2019-03-24T18:43:35.836Z,6.72
2019-03-24T18:46:05.594Z,6.71
2019-03-24T18:48:36.592Z,6.64
2019-03-24T18:51:08.052Z,6.74
2019-03-24T18:53:39.152Z,6.80
2019-03-24T18:56:08.927Z,6.70
2019-03-24T18:58:39.675Z,6.78
2019-03-24T19:01:09.531Z,6.79
2019-03-24T19:03:39.452Z,6.81
2019-03-24T19:06:10.073Z,6.85
2019-03-24T19:08:40.504Z,6.83
2019-03-24T19:11:10.418Z,6.82
2019-03-24T19:13:40.660Z,6.66
2019-03-24T19:16:10.839Z,6.57
2019-03-24T19:18:40.749Z,6.52
2019-03-24T19:21:11.677Z,6.51
2019-03-24T19:23:43.730Z,6.47
2019-03-24T19:26:15.202Z,6.39
2019-03-24T19:28:45.568Z,6.29
2019-03-24T19:31:15.375Z,6.28
2019-03-24T19:33:45.257Z,6.27
2019-03-24T19:36:16.188Z,6.19
2019-03-24T19:38:46.013Z,6.27
2019-03-24T19:41:17.025Z,6.23
2019-03-24T19:43:46.847Z,6.12
2019-03-24T19:46:16.804Z,6.10
2019-03-24T19:48:46.692Z,6.06
2019-03-24T19:51:16.597Z,6.02
2019-03-24T19:53:46.417Z,6.00
2019-03-24T19:56:16.643Z,6.04
2019-03-24T19:58:46.600Z,5.87
2019-03-24T20:01:18.366Z,5.91
2019-03-24T20:03:49.972Z,5.85
2019-03-24T20:06:20.040Z,5.78
2019-03-24T20:08:51.027Z,5.71
2019-03-24T20:11:21.254Z,5.76
2019-03-24T20:13:51.168Z,5.65
2019-03-24T20:16:21.106Z,5.58
2019-03-24T20:18:51.261Z,5.61
2019-03-24T20:21:21.072Z,5.58
2019-03-24T20:23:51.427Z,5.50
2019-03-24T20:26:21.253Z,5.50
2019-03-24T20:28:51.098Z,5.41
2019-03-24T20:31:23.117Z,5.28
2019-03-24T20:33:53.989Z,5.37
2019-03-24T20:36:24.206Z,5.49
2019-03-24T20:38:54.137Z,5.36
2019-03-24T20:41:24.143Z,5.34
2019-03-24T20:43:56.010Z,5.25
2019-03-24T20:46:25.864Z,5.19
2019-03-24T20:48:55.827Z,5.15
2019-03-24T20:51:25.740Z,5.08
2019-03-24T20:53:55.931Z,4.99
2019-03-24T20:56:25.873Z,4.97
2019-03-24T20:58:55.652Z,4.93
2019-03-24T21:01:25.453Z,4.91
2019-03-24T21:03:55.275Z,4.92
2019-03-24T21:06:25.012Z,4.93
2019-03-24T21:08:56.529Z,4.89
2019-03-24T21:11:26.452Z,4.87
2019-03-24T21:13:56.228Z,4.77
2019-03-24T21:16:26.061Z,4.76
2019-03-24T21:18:56.062Z,4.70
2019-03-24T21:21:25.793Z,4.66
2019-03-24T21:23:55.545Z,4.59
2019-03-24T21:26:25.682Z,4.53
2019-03-24T21:28:55.477Z,4.46
2019-03-24T21:31:25.308Z,4.44
2019-03-24T21:33:55.042Z,4.43
2019-03-24T21:36:25.636Z,4.39
2019-03-24T21:38:55.384Z,4.43
2019-03-24T21:41:25.086Z,4.32
2019-03-24T21:43:54.938Z,4.29
2019-03-24T21:46:24.698Z,4.38
2019-03-24T21:48:54.562Z,4.35
2019-03-24T21:51:24.371Z,4.34
2019-03-24T21:53:54.132Z,4.42
2019-03-24T21:56:23.964Z,4.39
2019-03-24T21:58:53.754Z,4.38
2019-03-24T22:01:23.546Z,4.34
2019-03-24T22:03:53.394Z,4.33
2019-03-24T22:06:23.077Z,4.44
2019-03-24T22:08:52.786Z,4.40
2019-03-24T22:11:22.628Z,4.41
2019-03-24T22:13:52.340Z,4.41
2019-03-24T22:16:22.057Z,4.39
2019-03-24T22:18:51.817Z,4.33
2019-03-24T22:21:21.602Z,4.39
2019-03-24T22:23:52.576Z,4.32
2019-03-24T22:26:22.628Z,4.24
2019-03-24T22:28:52.353Z,4.26
2019-03-24T22:31:22.080Z,4.21
2019-03-24T22:33:51.796Z,4.24
2019-03-24T22:36:21.542Z,4.27
2019-03-24T22:38:51.389Z,4.26
2019-03-24T22:41:21.289Z,4.31
2019-03-24T22:43:50.980Z,4.32
2019-03-24T22:46:20.705Z,4.25
2019-03-24T22:48:50.580Z,4.35
2019-03-24T22:51:20.307Z,4.40
2019-03-24T22:53:49.985Z,4.44
2019-03-24T22:56:19.674Z,4.51
2019-03-24T22:58:49.439Z,4.56
2019-03-24T23:01:19.589Z,4.54
2019-03-24T23:03:49.323Z,4.51
2019-03-24T23:06:19.002Z,4.43
2019-03-24T23:08:48.704Z,4.39
2019-03-24T23:11:19.138Z,4.34
2019-03-24T23:13:49.051Z,4.33
2019-03-24T23:16:18.850Z,4.36
2019-03-24T23:18:48.533Z,4.37
2019-03-24T23:21:18.327Z,4.30
2019-03-24T23:23:48.049Z,4.36
2019-03-24T23:26:17.761Z,4.37
2019-03-24T23:28:47.575Z,4.34
2019-03-24T23:31:17.274Z,4.31
2019-03-24T23:33:47.068Z,4.31
2019-03-24T23:36:16.775Z,4.26
2019-03-24T23:38:46.503Z,4.31
2019-03-24T23:41:16.249Z,4.36
2019-03-24T23:43:45.954Z,4.38
2019-03-24T23:46:15.774Z,4.47
2019-03-24T23:48:45.464Z,4.47
2019-03-24T23:51:15.202Z,4.50
2019-03-24T23:53:44.914Z,4.48
2019-03-24T23:56:14.649Z,4.47
2019-03-24T23:58:44.468Z,4.51
